This is the latest recevied weather packets stored in our database for station/object K4ZZR. If no packets are shown the sender has not sent any weather packets the latest 10 day(s).
| Time | Temp. | Humidity | Pressure | Rain* | Wind** | Luminosity | Snow |
|---|---|---|---|---|---|---|---|
| 1777734640 | 30° C | 72% | 1011.4 hPa | 0 mm | - | 795 W/m² | - |
| 1777734338 | 29.44° C | 74% | 1011.4 hPa | 0 mm | - | 734 W/m² | - |
| 1777734033 | 29.44° C | 74% | 1011.6 hPa | 0 mm | - | 672 W/m² | - |
| 1777733730 | 29.44° C | 75% | 1011.1 hPa | 0 mm | - | 752 W/m² | - |
| 1777733427 | 29.44° C | 76% | 1011.2 hPa | 0 mm | - | 615 W/m² | - |
| 1777733123 | 29.44° C | 75% | 1011.4 hPa | 0 mm | - | 699 W/m² | - |
| 1777732820 | 28.89° C | 78% | 1011.5 hPa | 0 mm | - | 571 W/m² | - |
| 1777732516 | 28.89° C | 78% | 1011.1 hPa | 0 mm | - | 623 W/m² | - |
| 1777732215 | 28.89° C | 77% | 1011.7 hPa | 0 mm | - | 552 W/m² | - |
| 1777731911 | 28.89° C | 79% | 1011.4 hPa | 0 mm | - | 633 W/m² | - |
| 1777731608 | 28.89° C | 79% | 1011.1 hPa | 0 mm | - | 631 W/m² | - |
| 1777731306 | 28.33° C | 79% | 1011.2 hPa | 0 mm | - | 250 W/m² | - |
| 1777731003 | 28.89° C | 81% | 1011.1 hPa | 0 mm | - | 644 W/m² | - |
| 1777730701 | 28.33° C | 83% | 1010.9 hPa | 0 mm | - | 594 W/m² | - |
| 1777730397 | 28.33° C | 83% | 1010.9 hPa | 0 mm | - | 581 W/m² | - |
| 1777730093 | 27.78° C | 84% | 1011 hPa | 0 mm | - | 574 W/m² | - |
| 1777729790 | 27.22° C | 85% | 1011.1 hPa | 0 mm | - | 448 W/m² | - |
| 1777729487 | 27.22° C | 85% | 1010.7 hPa | 0 mm | - | 524 W/m² | - |
| 1777729184 | 27.22° C | 85% | 1011 hPa | 0 mm | - | 521 W/m² | - |
| 1777728880 | 26.67° C | 86% | 1010.6 hPa | 0 mm | - | 480 W/m² | - |
| 1777728577 | 26.67° C | 86% | 1010.6 hPa | 0 mm | - | 456 W/m² | - |
| 1777728274 | 26.67° C | 86% | 1010.9 hPa | 0 mm | - | 442 W/m² | - |
| 1777727972 | 26.11° C | 87% | 1010.7 hPa | 0 mm | - | 409 W/m² | - |
| 1777727668 | 26.67° C | 86% | 1010.8 hPa | 0 mm | - | 405 W/m² | - |
| 1777727365 | 26.11° C | 87% | 1010.8 hPa | 0 mm | - | 371 W/m² | - |
* Rain latest hour (hover to see other rain measurements)
** Current wind speed in m/s (hover to see current wind gust speed)